sensor_id;sensor_type;location;lat;lon;timestamp;temperature;humidity
23149;DHT22;11743;51.228;22.498;2024-01-30T00:00:11;-1.00;99.90
23149;DHT22;11743;51.228;22.498;2024-01-30T00:00:33;-1.00;99.90
23149;DHT22;11743;51.228;22.498;2024-01-30T00:00:54;-1.00;99.90
23149;DHT22;11743;51.228;22.498;2024-01-30T00:01:16;-0.90;99.90
23149;DHT22;11743;51.228;22.498;2024-01-30T00:01:38;-1.00;99.90
23149;DHT22;11743;51.228;22.498;2024-01-30T00:02:00;-1.00;99.90
23149;DHT22;11743;51.228;22.498;2024-01-30T00:02:22;-1.00;99.90
23149;DHT22;11743;51.228;22.498;2024-01-30T00:02:44;-1.00;99.90
23149;DHT22;11743;51.228;22.498;2024-01-30T00:03:07;-1.00;99.90
23149;DHT22;11743;51.228;22.498;2024-01-30T00:03:29;-1.00;99.90
23149;DHT22;11743;51.228;22.498;2024-01-30T00:03:51;-1.00;99.90
23149;DHT22;11743;51.228;22.498;2024-01-30T00:04:13;-1.00;99.90
23149;DHT22;11743;51.228;22.498;2024-01-30T00:04:35;-1.00;99.90
23149;DHT22;11743;51.228;22.498;2024-01-30T00:04:57;-1.00;99.90
23149;DHT22;11743;51.228;22.498;2024-01-30T00:05:18;-1.00;99.90
23149;DHT22;11743;51.228;22.498;2024-01-30T00:05:40;-1.00;99.90
23149;DHT22;11743;51.228;22.498;2024-01-30T00:06:03;-1.00;99.90
23149;DHT22;11743;51.228;22.498;2024-01-30T00:06:25;-1.00;99.90
23149;DHT22;11743;51.228;22.498;2024-01-30T00:06:47;-1.00;99.90
23149;DHT22;11743;51.228;22.498;2024-01-30T00:07:09;-1.00;99.90
23149;DHT22;11743;51.228;22.498;2024-01-30T00:07:31;-1.00;99.90
23149;DHT22;11743;51.228;22.498;2024-01-30T00:07:54;-1.00;99.90
23149;DHT22;11743;51.228;22.498;2024-01-30T00:08:15;-1.00;99.90
23149;DHT22;11743;51.228;22.498;2024-01-30T00:08:37;-1.00;99.90
23149;DHT22;11743;51.228;22.498;2024-01-30T00:08:59;-1.00;99.90
23149;DHT22;11743;51.228;22.498;2024-01-30T00:09:21;-1.00;99.90
23149;DHT22;11743;51.228;22.498;2024-01-30T00:09:45;-1.00;99.90
23149;DHT22;11743;51.228;22.498;2024-01-30T00:10:08;-1.00;99.90
23149;DHT22;11743;51.228;22.498;2024-01-30T00:10:30;-1.00;99.90
23149;DHT22;11743;51.228;22.498;2024-01-30T00:10:52;-1.00;99.90
23149;DHT22;11743;51.228;22.498;2024-01-30T00:11:14;-1.00;99.90
23149;DHT22;11743;51.228;22.498;2024-01-30T00:11:39;-1.00;99.90
23149;DHT22;11743;51.228;22.498;2024-01-30T00:12:01;-1.00;99.90
23149;DHT22;11743;51.228;22.498;2024-01-30T00:12:23;-1.00;99.90
23149;DHT22;11743;51.228;22.498;2024-01-30T00:12:44;-1.00;99.90
23149;DHT22;11743;51.228;22.498;2024-01-30T00:13:06;-1.00;99.90
23149;DHT22;11743;51.228;22.498;2024-01-30T00:13:28;-1.00;99.90
23149;DHT22;11743;51.228;22.498;2024-01-30T00:13:50;-1.00;99.90
23149;DHT22;11743;51.228;22.498;2024-01-30T00:14:13;-1.10;99.90
23149;DHT22;11743;51.228;22.498;2024-01-30T00:14:35;-1.00;99.90
23149;DHT22;11743;51.228;22.498;2024-01-30T00:14:57;-1.00;99.90
23149;DHT22;11743;51.228;22.498;2024-01-30T00:15:19;-1.10;99.90
23149;DHT22;11743;51.228;22.498;2024-01-30T00:15:41;-1.00;99.90
23149;DHT22;11743;51.228;22.498;2024-01-30T00:16:03;-1.00;99.90
23149;DHT22;11743;51.228;22.498;2024-01-30T00:16:26;-1.00;99.90
23149;DHT22;11743;51.228;22.498;2024-01-30T00:16:48;-1.00;99.90
23149;DHT22;11743;51.228;22.498;2024-01-30T00:17:10;-1.00;99.90
23149;DHT22;11743;51.228;22.498;2024-01-30T00:17:32;-1.00;99.90
23149;DHT22;11743;51.228;22.498;2024-01-30T00:17:54;-1.00;99.90
23149;DHT22;11743;51.228;22.498;2024-01-30T00:18:15;-1.00;99.90
23149;DHT22;11743;51.228;22.498;2024-01-30T00:18:37;-1.00;99.90
23149;DHT22;11743;51.228;22.498;2024-01-30T00:19:00;-1.00;99.90
23149;DHT22;11743;51.228;22.498;2024-01-30T00:19:24;-1.10;99.90
23149;DHT22;11743;51.228;22.498;2024-01-30T00:19:46;-1.00;99.90
23149;DHT22;11743;51.228;22.498;2024-01-30T00:20:08;-1.00;99.90
23149;DHT22;11743;51.228;22.498;2024-01-30T00:20:31;-1.00;99.90
23149;DHT22;11743;51.228;22.498;2024-01-30T00:20:53;-1.00;99.90
23149;DHT22;11743;51.228;22.498;2024-01-30T00:21:15;-1.00;99.90
23149;DHT22;11743;51.228;22.498;2024-01-30T00:21:37;-1.00;99.90
23149;DHT22;11743;51.228;22.498;2024-01-30T00:21:59;-1.00;99.90
23149;DHT22;11743;51.228;22.498;2024-01-30T00:22:21;-1.00;99.90
23149;DHT22;11743;51.228;22.498;2024-01-30T00:22:43;-1.00;99.90
23149;DHT22;11743;51.228;22.498;2024-01-30T00:23:05;-1.00;99.90
23149;DHT22;11743;51.228;22.498;2024-01-30T00:23:26;-1.00;99.90
23149;DHT22;11743;51.228;22.498;2024-01-30T00:23:48;-1.00;99.90
23149;DHT22;11743;51.228;22.498;2024-01-30T00:24:10;-1.00;99.90
23149;DHT22;11743;51.228;22.498;2024-01-30T00:24:32;-1.00;99.90
23149;DHT22;11743;51.228;22.498;2024-01-30T00:24:54;-1.00;99.90
23149;DHT22;11743;51.228;22.498;2024-01-30T00:25:16;-1.10;99.90
23149;DHT22;11743;51.228;22.498;2024-01-30T00:25:37;-1.10;99.90
23149;DHT22;11743;51.228;22.498;2024-01-30T00:25:59;-1.10;99.90
23149;DHT22;11743;51.228;22.498;2024-01-30T00:26:21;-1.10;99.90
23149;DHT22;11743;51.228;22.498;2024-01-30T00:26:43;-1.10;99.90
23149;DHT22;11743;51.228;22.498;2024-01-30T00:27:05;-1.10;99.90
23149;DHT22;11743;51.228;22.498;2024-01-30T00:27:27;-1.10;99.90
23149;DHT22;11743;51.228;22.498;2024-01-30T00:27:49;-1.10;99.90
23149;DHT22;11743;51.228;22.498;2024-01-30T00:28:11;-1.10;99.90
23149;DHT22;11743;51.228;22.498;2024-01-30T00:28:33;-1.10;99.90
23149;DHT22;11743;51.228;22.498;2024-01-30T00:28:55;-1.10;99.90
23149;DHT22;11743;51.228;22.498;2024-01-30T00:30:55;-1.10;99.90
23149;DHT22;11743;51.228;22.498;2024-01-30T00:31:17;-1.10;99.90
23149;DHT22;11743;51.228;22.498;2024-01-30T00:31:38;-1.10;99.90
23149;DHT22;11743;51.228;22.498;2024-01-30T00:32:03;-1.10;99.90
23149;DHT22;11743;51.228;22.498;2024-01-30T00:32:25;-1.10;99.90
23149;DHT22;11743;51.228;22.498;2024-01-30T00:32:46;-1.10;99.90
23149;DHT22;11743;51.228;22.498;2024-01-30T00:33:09;-1.00;99.90
23149;DHT22;11743;51.228;22.498;2024-01-30T00:33:31;-1.10;99.90
23149;DHT22;11743;51.228;22.498;2024-01-30T00:33:53;-1.10;99.90
23149;DHT22;11743;51.228;22.498;2024-01-30T00:34:15;-1.10;99.90
23149;DHT22;11743;51.228;22.498;2024-01-30T00:34:37;-1.10;99.90
23149;DHT22;11743;51.228;22.498;2024-01-30T00:34:59;-1.10;99.90
23149;DHT22;11743;51.228;22.498;2024-01-30T00:35:21;-1.00;99.90
23149;DHT22;11743;51.228;22.498;2024-01-30T00:35:44;-1.10;99.90
23149;DHT22;11743;51.228;22.498;2024-01-30T00:36:07;-1.10;99.90
23149;DHT22;11743;51.228;22.498;2024-01-30T00:36:29;-1.10;99.90
23149;DHT22;11743;51.228;22.498;2024-01-30T00:36:51;-1.10;99.90
23149;DHT22;11743;51.228;22.498;2024-01-30T00:37:13;-1.10;99.90
23149;DHT22;11743;51.228;22.498;2024-01-30T00:37:35;-1.10;99.90
23149;DHT22;11743;51.228;22.498;2024-01-30T00:37:57;-1.10;99.90
23149;DHT22;11743;51.228;22.498;2024-01-30T00:38:19;-1.10;99.90
23149;DHT22;11743;51.228;22.498;2024-01-30T00:38:41;-1.10;99.90
23149;DHT22;11743;51.228;22.498;2024-01-30T00:39:02;-1.10;99.90
23149;DHT22;11743;51.228;22.498;2024-01-30T00:39:27;-1.00;99.90
23149;DHT22;11743;51.228;22.498;2024-01-30T00:39:49;-1.00;99.90
23149;DHT22;11743;51.228;22.498;2024-01-30T00:40:11;-1.00;99.90
23149;DHT22;11743;51.228;22.498;2024-01-30T00:40:37;-1.10;99.90
23149;DHT22;11743;51.228;22.498;2024-01-30T00:40:59;-1.00;99.90
23149;DHT22;11743;51.228;22.498;2024-01-30T00:41:21;-1.10;99.90
23149;DHT22;11743;51.228;22.498;2024-01-30T00:41:43;-1.00;99.90
23149;DHT22;11743;51.228;22.498;2024-01-30T00:42:05;-1.10;99.90
23149;DHT22;11743;51.228;22.498;2024-01-30T00:42:26;-1.10;99.90
23149;DHT22;11743;51.228;22.498;2024-01-30T00:42:48;-1.10;99.90
23149;DHT22;11743;51.228;22.498;2024-01-30T00:43:10;-1.10;99.90
23149;DHT22;11743;51.228;22.498;2024-01-30T00:43:32;-1.10;99.90
23149;DHT22;11743;51.228;22.498;2024-01-30T00:43:54;-1.10;99.90
23149;DHT22;11743;51.228;22.498;2024-01-30T00:44:16;-1.10;99.90
23149;DHT22;11743;51.228;22.498;2024-01-30T00:44:37;-1.10;99.90
23149;DHT22;11743;51.228;22.498;2024-01-30T00:45:00;-1.10;99.90
23149;DHT22;11743;51.228;22.498;2024-01-30T00:45:22;-1.10;99.90
23149;DHT22;11743;51.228;22.498;2024-01-30T00:45:44;-1.10;99.90
23149;DHT22;11743;51.228;22.498;2024-01-30T00:46:06;-1.10;99.90
23149;DHT22;11743;51.228;22.498;2024-01-30T00:46:28;-1.10;99.90
23149;DHT22;11743;51.228;22.498;2024-01-30T00:46:49;-1.10;99.90
23149;DHT22;11743;51.228;22.498;2024-01-30T00:47:11;-1.10;99.90
23149;DHT22;11743;51.228;22.498;2024-01-30T00:47:33;-1.10;99.90
23149;DHT22;11743;51.228;22.498;2024-01-30T00:47:55;-1.10;99.90
23149;DHT22;11743;51.228;22.498;2024-01-30T00:48:17;-1.10;99.90
23149;DHT22;11743;51.228;22.498;2024-01-30T00:48:39;-1.10;99.90
23149;DHT22;11743;51.228;22.498;2024-01-30T00:49:00;-1.10;99.90
23149;DHT22;11743;51.228;22.498;2024-01-30T00:49:22;-1.10;99.90
23149;DHT22;11743;51.228;22.498;2024-01-30T00:49:44;-1.10;99.90
23149;DHT22;11743;51.228;22.498;2024-01-30T00:50:07;-1.10;99.90
23149;DHT22;11743;51.228;22.498;2024-01-30T00:50:28;-1.10;99.90
23149;DHT22;11743;51.228;22.498;2024-01-30T00:50:50;-1.20;99.90
23149;DHT22;11743;51.228;22.498;2024-01-30T00:51:12;-1.10;99.90
23149;DHT22;11743;51.228;22.498;2024-01-30T00:51:34;-1.10;99.90
23149;DHT22;11743;51.228;22.498;2024-01-30T00:51:56;-0.10;99.90
23149;DHT22;11743;51.228;22.498;2024-01-30T00:52:18;-1.10;99.90
23149;DHT22;11743;51.228;22.498;2024-01-30T00:52:40;-1.10;99.90
23149;DHT22;11743;51.228;22.498;2024-01-30T00:53:03;-1.10;99.90
23149;DHT22;11743;51.228;22.498;2024-01-30T00:53:25;-1.10;99.90
23149;DHT22;11743;51.228;22.498;2024-01-30T00:53:47;-1.10;99.90
23149;DHT22;11743;51.228;22.498;2024-01-30T00:54:09;-1.00;99.90
23149;DHT22;11743;51.228;22.498;2024-01-30T00:54:31;-1.10;99.90
23149;DHT22;11743;51.228;22.498;2024-01-30T00:54:53;-1.10;99.90
23149;DHT22;11743;51.228;22.498;2024-01-30T00:55:14;-1.10;99.90
23149;DHT22;11743;51.228;22.498;2024-01-30T00:55:37;-1.10;99.90
23149;DHT22;11743;51.228;22.498;2024-01-30T00:55:59;-1.10;99.90
23149;DHT22;11743;51.228;22.498;2024-01-30T00:56:20;-1.10;99.90
23149;DHT22;11743;51.228;22.498;2024-01-30T00:56:42;-1.10;99.90
23149;DHT22;11743;51.228;22.498;2024-01-30T00:57:04;-1.10;99.90
23149;DHT22;11743;51.228;22.498;2024-01-30T00:57:26;-1.10;99.90
23149;DHT22;11743;51.228;22.498;2024-01-30T00:57:48;-1.10;99.90
23149;DHT22;11743;51.228;22.498;2024-01-30T00:58:10;-1.10;99.90
23149;DHT22;11743;51.228;22.498;2024-01-30T00:58:32;-1.10;99.90
23149;DHT22;11743;51.228;22.498;2024-01-30T00:58:54;-1.10;99.90
23149;DHT22;11743;51.228;22.498;2024-01-30T00:59:16;-1.00;99.90
23149;DHT22;11743;51.228;22.498;2024-01-30T00:59:37;-1.10;99.90
23149;DHT22;11743;51.228;22.498;2024-01-30T00:59:59;-1.10;99.90
23149;DHT22;11743;51.228;22.498;2024-01-30T01:00:21;-1.00;99.90
23149;DHT22;11743;51.228;22.498;2024-01-30T01:00:45;-1.00;99.90
23149;DHT22;11743;51.228;22.498;2024-01-30T01:01:07;-1.00;99.90
23149;DHT22;11743;51.228;22.498;2024-01-30T01:01:29;-1.00;99.90
23149;DHT22;11743;51.228;22.498;2024-01-30T01:01:51;-1.00;99.90
23149;DHT22;11743;51.228;22.498;2024-01-30T01:02:13;-1.00;99.90
23149;DHT22;11743;51.228;22.498;2024-01-30T01:02:36;-1.00;99.90
23149;DHT22;11743;51.228;22.498;2024-01-30T01:02:58;-1.00;99.90
23149;DHT22;11743;51.228;22.498;2024-01-30T01:03:20;-1.00;99.90
23149;DHT22;11743;51.228;22.498;2024-01-30T01:03:43;-1.00;99.90
23149;DHT22;11743;51.228;22.498;2024-01-30T01:04:05;-1.00;99.90
23149;DHT22;11743;51.228;22.498;2024-01-30T01:04:29;-1.00;99.90
23149;DHT22;11743;51.228;22.498;2024-01-30T01:04:51;-1.00;99.90
23149;DHT22;11743;51.228;22.498;2024-01-30T01:05:13;-1.00;99.90
23149;DHT22;11743;51.228;22.498;2024-01-30T01:05:34;-1.00;99.90
23149;DHT22;11743;51.228;22.498;2024-01-30T01:05:56;-1.00;99.90
23149;DHT22;11743;51.228;22.498;2024-01-30T01:06:18;-1.00;99.90
23149;DHT22;11743;51.228;22.498;2024-01-30T01:06:40;-1.00;99.90
23149;DHT22;11743;51.228;22.498;2024-01-30T01:07:05;-1.00;99.90
23149;DHT22;11743;51.228;22.498;2024-01-30T01:07:27;-1.00;99.90
23149;DHT22;11743;51.228;22.498;2024-01-30T01:07:49;-1.00;99.90
23149;DHT22;11743;51.228;22.498;2024-01-30T01:08:11;-1.00;99.90
23149;DHT22;11743;51.228;22.498;2024-01-30T01:08:33;-1.00;99.90
23149;DHT22;11743;51.228;22.498;2024-01-30T01:08:57;-1.00;99.90
23149;DHT22;11743;51.228;22.498;2024-01-30T01:09:22;-1.00;99.90
23149;DHT22;11743;51.228;22.498;2024-01-30T01:09:44;-1.00;99.90
23149;DHT22;11743;51.228;22.498;2024-01-30T01:10:06;-1.00;99.90
23149;DHT22;11743;51.228;22.498;2024-01-30T01:10:28;-1.00;99.90
23149;DHT22;11743;51.228;22.498;2024-01-30T01:10:50;-1.00;99.90
23149;DHT22;11743;51.228;22.498;2024-01-30T01:11:12;-1.00;99.90
23149;DHT22;11743;51.228;22.498;2024-01-30T01:11:34;-1.00;99.90
23149;DHT22;11743;51.228;22.498;2024-01-30T01:11:56;-1.00;99.90
23149;DHT22;11743;51.228;22.498;2024-01-30T01:12:18;-1.00;99.90
23149;DHT22;11743;51.228;22.498;2024-01-30T01:12:40;-1.00;99.90
23149;DHT22;11743;51.228;22.498;2024-01-30T01:13:02;-1.00;99.90
23149;DHT22;11743;51.228;22.498;2024-01-30T01:13:24;-1.00;99.90
23149;DHT22;11743;51.228;22.498;2024-01-30T01:13:48;-1.00;99.90
23149;DHT22;11743;51.228;22.498;2024-01-30T01:14:09;-1.00;99.90
23149;DHT22;11743;51.228;22.498;2024-01-30T01:14:31;-1.00;99.90
23149;DHT22;11743;51.228;22.498;2024-01-30T01:14:53;-1.00;99.90
23149;DHT22;11743;51.228;22.498;2024-01-30T01:15:15;-1.00;99.90
23149;DHT22;11743;51.228;22.498;2024-01-30T01:15:37;-1.00;99.90
23149;DHT22;11743;51.228;22.498;2024-01-30T01:15:58;-1.00;99.90
23149;DHT22;11743;51.228;22.498;2024-01-30T01:16:20;-1.00;99.90
23149;DHT22;11743;51.228;22.498;2024-01-30T01:16:42;-1.00;99.90
23149;DHT22;11743;51.228;22.498;2024-01-30T01:17:04;-1.10;99.90
23149;DHT22;11743;51.228;22.498;2024-01-30T01:17:26;-1.00;99.90
23149;DHT22;11743;51.228;22.498;2024-01-30T01:17:49;-1.10;99.90
23149;DHT22;11743;51.228;22.498;2024-01-30T01:18:11;-1.10;99.90
23149;DHT22;11743;51.228;22.498;2024-01-30T01:18:33;-1.10;99.90
23149;DHT22;11743;51.228;22.498;2024-01-30T01:18:55;-1.10;99.90
23149;DHT22;11743;51.228;22.498;2024-01-30T01:19:17;-1.10;99.90
23149;DHT22;11743;51.228;22.498;2024-01-30T01:19:39;-1.10;99.90
23149;DHT22;11743;51.228;22.498;2024-01-30T01:20:01;-1.10;99.90
23149;DHT22;11743;51.228;22.498;2024-01-30T01:20:23;-1.10;99.90
23149;DHT22;11743;51.228;22.498;2024-01-30T01:20:45;-1.10;99.90
23149;DHT22;11743;51.228;22.498;2024-01-30T01:21:07;-1.10;99.90
23149;DHT22;11743;51.228;22.498;2024-01-30T01:21:28;-1.10;99.90
23149;DHT22;11743;51.228;22.498;2024-01-30T01:21:51;-1.10;99.90
23149;DHT22;11743;51.228;22.498;2024-01-30T01:22:13;-1.10;99.90
23149;DHT22;11743;51.228;22.498;2024-01-30T01:22:34;-1.10;99.90
23149;DHT22;11743;51.228;22.498;2024-01-30T01:22:56;-1.10;99.90
23149;DHT22;11743;51.228;22.498;2024-01-30T01:23:19;-1.10;99.90
23149;DHT22;11743;51.228;22.498;2024-01-30T01:23:41;-1.10;99.90
23149;DHT22;11743;51.228;22.498;2024-01-30T01:24:03;-1.10;99.90
23149;DHT22;11743;51.228;22.498;2024-01-30T01:24:25;-1.00;99.90
23149;DHT22;11743;51.228;22.498;2024-01-30T01:24:47;-1.00;99.90
23149;DHT22;11743;51.228;22.498;2024-01-30T01:25:09;-1.00;99.90
23149;DHT22;11743;51.228;22.498;2024-01-30T01:25:32;-1.10;99.90
23149;DHT22;11743;51.228;22.498;2024-01-30T01:25:53;-1.10;99.90
23149;DHT22;11743;51.228;22.498;2024-01-30T01:26:21;-1.10;99.90
23149;DHT22;11743;51.228;22.498;2024-01-30T01:26:43;-1.10;99.90
23149;DHT22;11743;51.228;22.498;2024-01-30T01:27:05;-1.10;99.90
23149;DHT22;11743;51.228;22.498;2024-01-30T01:27:27;-1.10;99.90
23149;DHT22;11743;51.228;22.498;2024-01-30T01:27:49;-1.10;99.90
23149;DHT22;11743;51.228;22.498;2024-01-30T01:28:13;-1.10;99.90
23149;DHT22;11743;51.228;22.498;2024-01-30T01:28:35;-0.20;99.90
23149;DHT22;11743;51.228;22.498;2024-01-30T01:28:57;-1.10;99.90
23149;DHT22;11743;51.228;22.498;2024-01-30T01:29:19;-1.10;99.90
23149;DHT22;11743;51.228;22.498;2024-01-30T01:29:42;-1.10;99.90
23149;DHT22;11743;51.228;22.498;2024-01-30T01:30:05;-1.10;99.90
23149;DHT22;11743;51.228;22.498;2024-01-30T01:30:27;-1.10;99.90
23149;DHT22;11743;51.228;22.498;2024-01-30T01:30:50;-1.10;99.90
23149;DHT22;11743;51.228;22.498;2024-01-30T01:31:13;-1.10;99.90
23149;DHT22;11743;51.228;22.498;2024-01-30T01:31:37;-1.10;99.90
23149;DHT22;11743;51.228;22.498;2024-01-30T01:32:05;-1.10;99.90
23149;DHT22;11743;51.228;22.498;2024-01-30T01:32:27;-1.10;99.90
23149;DHT22;11743;51.228;22.498;2024-01-30T01:32:49;-1.10;99.90
23149;DHT22;11743;51.228;22.498;2024-01-30T01:33:16;-1.10;99.90
23149;DHT22;11743;51.228;22.498;2024-01-30T01:33:39;-1.10;99.90
23149;DHT22;11743;51.228;22.498;2024-01-30T01:34:01;-1.10;99.90
23149;DHT22;11743;51.228;22.498;2024-01-30T01:34:23;-1.10;99.90
23149;DHT22;11743;51.228;22.498;2024-01-30T01:34:50;-1.10;99.90
23149;DHT22;11743;51.228;22.498;2024-01-30T01:35:12;-1.10;99.90
23149;DHT22;11743;51.228;22.498;2024-01-30T01:35:34;-1.10;99.90
23149;DHT22;11743;51.228;22.498;2024-01-30T01:35:56;-1.10;99.90
23149;DHT22;11743;51.228;22.498;2024-01-30T01:36:18;-1.10;99.90
23149;DHT22;11743;51.228;22.498;2024-01-30T01:36:40;-1.10;99.90
23149;DHT22;11743;51.228;22.498;2024-01-30T01:37:02;-1.10;99.90
23149;DHT22;11743;51.228;22.498;2024-01-30T01:37:24;-1.10;99.90
23149;DHT22;11743;51.228;22.498;2024-01-30T01:37:48;-1.10;99.90
23149;DHT22;11743;51.228;22.498;2024-01-30T01:38:16;-1.10;99.90
23149;DHT22;11743;51.228;22.498;2024-01-30T01:38:38;-1.10;99.90
23149;DHT22;11743;51.228;22.498;2024-01-30T01:38:59;-1.10;99.90
23149;DHT22;11743;51.228;22.498;2024-01-30T01:39:22;-1.10;99.90
23149;DHT22;11743;51.228;22.498;2024-01-30T01:39:47;-1.10;99.90
23149;DHT22;11743;51.228;22.498;2024-01-30T01:40:09;-1.10;99.90
23149;DHT22;11743;51.228;22.498;2024-01-30T01:40:31;-1.10;99.90
23149;DHT22;11743;51.228;22.498;2024-01-30T01:40:53;-1.10;99.90
23149;DHT22;11743;51.228;22.498;2024-01-30T01:41:14;-1.10;99.90
23149;DHT22;11743;51.228;22.498;2024-01-30T01:41:36;-1.10;99.90
23149;DHT22;11743;51.228;22.498;2024-01-30T01:41:58;-1.20;99.90
23149;DHT22;11743;51.228;22.498;2024-01-30T01:42:20;-1.20;99.90
23149;DHT22;11743;51.228;22.498;2024-01-30T01:42:41;-1.10;99.90
23149;DHT22;11743;51.228;22.498;2024-01-30T01:43:03;-1.20;99.90
23149;DHT22;11743;51.228;22.498;2024-01-30T01:43:27;-1.20;99.90
23149;DHT22;11743;51.228;22.498;2024-01-30T01:43:49;-1.10;99.90
23149;DHT22;11743;51.228;22.498;2024-01-30T01:44:11;-1.20;99.90
23149;DHT22;11743;51.228;22.498;2024-01-30T01:44:32;-1.20;99.90
23149;DHT22;11743;51.228;22.498;2024-01-30T01:44:54;-1.20;99.90
23149;DHT22;11743;51.228;22.498;2024-01-30T01:45:17;-1.20;99.90
23149;DHT22;11743;51.228;22.498;2024-01-30T01:45:39;-1.20;99.90
23149;DHT22;11743;51.228;22.498;2024-01-30T01:46:01;-1.20;99.90
23149;DHT22;11743;51.228;22.498;2024-01-30T01:46:23;-1.20;99.90
23149;DHT22;11743;51.228;22.498;2024-01-30T01:46:45;-1.20;99.90
23149;DHT22;11743;51.228;22.498;2024-01-30T01:47:07;-1.20;99.90
23149;DHT22;11743;51.228;22.498;2024-01-30T01:47:29;-1.20;99.90
23149;DHT22;11743;51.228;22.498;2024-01-30T01:47:51;-1.20;99.90
23149;DHT22;11743;51.228;22.498;2024-01-30T01:48:14;-1.20;99.90
23149;DHT22;11743;51.228;22.498;2024-01-30T01:48:36;-1.20;99.90
23149;DHT22;11743;51.228;22.498;2024-01-30T01:49:00;-1.20;99.90
23149;DHT22;11743;51.228;22.498;2024-01-30T01:49:25;-1.20;99.90
23149;DHT22;11743;51.228;22.498;2024-01-30T01:49:49;-1.20;99.90
23149;DHT22;11743;51.228;22.498;2024-01-30T01:50:15;-1.20;99.90
23149;DHT22;11743;51.228;22.498;2024-01-30T01:50:40;-1.20;99.90
23149;DHT22;11743;51.228;22.498;2024-01-30T01:51:03;-1.20;99.90
23149;DHT22;11743;51.228;22.498;2024-01-30T01:51:27;-1.20;99.90
23149;DHT22;11743;51.228;22.498;2024-01-30T01:51:50;-1.20;99.90
23149;DHT22;11743;51.228;22.498;2024-01-30T01:52:13;-1.20;99.90
23149;DHT22;11743;51.228;22.498;2024-01-30T01:52:36;-1.30;99.90
23149;DHT22;11743;51.228;22.498;2024-01-30T01:52:58;-1.30;99.90
23149;DHT22;11743;51.228;22.498;2024-01-30T01:53:20;-1.30;99.90
23149;DHT22;11743;51.228;22.498;2024-01-30T01:53:42;-1.20;99.90
23149;DHT22;11743;51.228;22.498;2024-01-30T01:54:05;-1.30;99.90
23149;DHT22;11743;51.228;22.498;2024-01-30T01:54:27;-1.30;99.90
23149;DHT22;11743;51.228;22.498;2024-01-30T01:54:50;-1.30;99.90
23149;DHT22;11743;51.228;22.498;2024-01-30T01:55:13;-1.30;99.90
23149;DHT22;11743;51.228;22.498;2024-01-30T01:55:37;-1.20;99.90
23149;DHT22;11743;51.228;22.498;2024-01-30T01:55:59;-1.30;99.90
23149;DHT22;11743;51.228;22.498;2024-01-30T01:56:22;-1.30;99.90
23149;DHT22;11743;51.228;22.498;2024-01-30T01:56:44;-1.30;99.90
23149;DHT22;11743;51.228;22.498;2024-01-30T01:57:06;-1.30;99.90
23149;DHT22;11743;51.228;22.498;2024-01-30T01:57:28;-1.30;99.90
23149;DHT22;11743;51.228;22.498;2024-01-30T01:57:50;-1.30;99.90
23149;DHT22;11743;51.228;22.498;2024-01-30T01:58:12;-1.30;99.90
23149;DHT22;11743;51.228;22.498;2024-01-30T01:58:35;-1.30;99.90
23149;DHT22;11743;51.228;22.498;2024-01-30T01:59:00;-1.30;99.90
23149;DHT22;11743;51.228;22.498;2024-01-30T01:59:25;-1.30;99.90
23149;DHT22;11743;51.228;22.498;2024-01-30T01:59:47;-1.30;99.90
23149;DHT22;11743;51.228;22.498;2024-01-30T02:00:10;-1.30;99.90
23149;DHT22;11743;51.228;22.498;2024-01-30T02:00:32;-1.30;99.90
23149;DHT22;11743;51.228;22.498;2024-01-30T02:00:54;-1.30;99.90
23149;DHT22;11743;51.228;22.498;2024-01-30T02:01:20;-1.30;99.90
23149;DHT22;11743;51.228;22.498;2024-01-30T02:01:42;-1.30;99.90
23149;DHT22;11743;51.228;22.498;2024-01-30T02:02:05;-1.30;99.90
23149;DHT22;11743;51.228;22.498;2024-01-30T02:02:30;-1.30;99.90
23149;DHT22;11743;51.228;22.498;2024-01-30T02:02:56;-1.30;99.90
23149;DHT22;11743;51.228;22.498;2024-01-30T02:03:18;-1.30;99.90
23149;DHT22;11743;51.228;22.498;2024-01-30T02:03:43;-1.30;99.90
23149;DHT22;11743;51.228;22.498;2024-01-30T02:04:05;-1.20;99.90
23149;DHT22;11743;51.228;22.498;2024-01-30T02:04:27;-1.20;99.90
23149;DHT22;11743;51.228;22.498;2024-01-30T02:04:49;-1.30;99.90
23149;DHT22;11743;51.228;22.498;2024-01-30T02:05:12;-1.20;99.90
23149;DHT22;11743;51.228;22.498;2024-01-30T02:05:34;-1.20;99.90
23149;DHT22;11743;51.228;22.498;2024-01-30T02:05:56;-1.20;99.90
23149;DHT22;11743;51.228;22.498;2024-01-30T02:06:18;-1.20;99.90
23149;DHT22;11743;51.228;22.498;2024-01-30T02:06:40;-1.20;99.90
23149;DHT22;11743;51.228;22.498;2024-01-30T02:07:03;-1.30;99.90
23149;DHT22;11743;51.228;22.498;2024-01-30T02:07:25;-1.20;99.90
23149;DHT22;11743;51.228;22.498;2024-01-30T02:07:47;-1.30;99.90
23149;DHT22;11743;51.228;22.498;2024-01-30T02:08:09;-1.30;99.90
23149;DHT22;11743;51.228;22.498;2024-01-30T02:08:31;-1.30;99.90
23149;DHT22;11743;51.228;22.498;2024-01-30T02:08:54;-1.30;99.90
23149;DHT22;11743;51.228;22.498;2024-01-30T02:09:15;-1.30;99.90
23149;DHT22;11743;51.228;22.498;2024-01-30T02:09:37;-1.30;99.90
23149;DHT22;11743;51.228;22.498;2024-01-30T02:09:59;-1.30;99.90
23149;DHT22;11743;51.228;22.498;2024-01-30T02:10:21;-1.30;99.90
23149;DHT22;11743;51.228;22.498;2024-01-30T02:10:43;-1.30;99.90
23149;DHT22;11743;51.228;22.498;2024-01-30T02:11:05;-1.30;99.90
23149;DHT22;11743;51.228;22.498;2024-01-30T02:11:27;-1.30;99.90
23149;DHT22;11743;51.228;22.498;2024-01-30T02:11:49;-1.30;99.90
23149;DHT22;11743;51.228;22.498;2024-01-30T02:12:11;-1.30;99.90
23149;DHT22;11743;51.228;22.498;2024-01-30T02:12:33;-1.30;99.90
23149;DHT22;11743;51.228;22.498;2024-01-30T02:12:55;-1.30;99.90
23149;DHT22;11743;51.228;22.498;2024-01-30T02:13:17;-1.30;99.90
23149;DHT22;11743;51.228;22.498;2024-01-30T02:13:39;-1.30;99.90
23149;DHT22;11743;51.228;22.498;2024-01-30T02:14:03;-1.40;99.90
23149;DHT22;11743;51.228;22.498;2024-01-30T02:14:25;-1.40;99.90
23149;DHT22;11743;51.228;22.498;2024-01-30T02:14:51;-1.40;99.90
23149;DHT22;11743;51.228;22.498;2024-01-30T02:15:14;-1.40;99.90
23149;DHT22;11743;51.228;22.498;2024-01-30T02:15:36;-1.40;99.90
23149;DHT22;11743;51.228;22.498;2024-01-30T02:15:58;-1.30;99.90
23149;DHT22;11743;51.228;22.498;2024-01-30T02:16:20;-1.40;99.90
23149;DHT22;11743;51.228;22.498;2024-01-30T02:16:42;-1.40;99.90
23149;DHT22;11743;51.228;22.498;2024-01-30T02:17:04;-1.40;99.90
23149;DHT22;11743;51.228;22.498;2024-01-30T02:17:26;-1.40;99.90
23149;DHT22;11743;51.228;22.498;2024-01-30T02:17:47;-1.30;99.90
23149;DHT22;11743;51.228;22.498;2024-01-30T02:18:09;-1.40;99.90
23149;DHT22;11743;51.228;22.498;2024-01-30T02:18:31;-1.30;99.90
23149;DHT22;11743;51.228;22.498;2024-01-30T02:18:53;-1.30;99.90
23149;DHT22;11743;51.228;22.498;2024-01-30T02:19:15;-1.30;99.90
23149;DHT22;11743;51.228;22.498;2024-01-30T02:19:37;-1.40;99.90
23149;DHT22;11743;51.228;22.498;2024-01-30T02:19:59;-1.30;99.90
23149;DHT22;11743;51.228;22.498;2024-01-30T02:20:23;-1.30;99.90